sensor_id;sensor_type;location;lat;lon;timestamp;P1;durP1;ratioP1;P2;durP2;ratioP2
43678;SDS011;29279;50.858;4.392;2023-05-19T00:01:09;22.35;;;5.93;;
43678;SDS011;29279;50.858;4.392;2023-05-19T00:03:37;14.70;;;6.25;;
43678;SDS011;29279;50.858;4.392;2023-05-19T00:06:12;15.00;;;5.97;;
43678;SDS011;29279;50.858;4.392;2023-05-19T00:08:38;24.85;;;6.55;;
43678;SDS011;29279;50.858;4.392;2023-05-19T00:11:04;25.58;;;7.32;;
43678;SDS011;29279;50.858;4.392;2023-05-19T00:13:30;18.83;;;6.13;;
43678;SDS011;29279;50.858;4.392;2023-05-19T00:15:57;14.73;;;6.82;;
43678;SDS011;29279;50.858;4.392;2023-05-19T00:18:22;18.50;;;6.22;;
43678;SDS011;29279;50.858;4.392;2023-05-19T00:20:48;18.50;;;6.65;;
43678;SDS011;29279;50.858;4.392;2023-05-19T00:23:16;22.10;;;7.70;;
43678;SDS011;29279;50.858;4.392;2023-05-19T00:25:41;13.70;;;6.72;;
43678;SDS011;29279;50.858;4.392;2023-05-19T00:28:07;20.70;;;6.72;;
43678;SDS011;29279;50.858;4.392;2023-05-19T00:30:33;18.92;;;6.43;;
43678;SDS011;29279;50.858;4.392;2023-05-19T00:32:58;18.65;;;6.43;;
43678;SDS011;29279;50.858;4.392;2023-05-19T00:35:24;19.13;;;6.82;;
43678;SDS011;29279;50.858;4.392;2023-05-19T00:37:50;18.40;;;6.82;;
43678;SDS011;29279;50.858;4.392;2023-05-19T00:40:15;17.52;;;6.60;;
43678;SDS011;29279;50.858;4.392;2023-05-19T00:42:45;23.38;;;6.93;;
43678;SDS011;29279;50.858;4.392;2023-05-19T00:45:10;18.05;;;6.38;;
43678;SDS011;29279;50.858;4.392;2023-05-19T00:47:36;25.10;;;7.38;;
43678;SDS011;29279;50.858;4.392;2023-05-19T00:50:02;20.50;;;6.65;;
43678;SDS011;29279;50.858;4.392;2023-05-19T00:52:27;16.27;;;6.00;;
43678;SDS011;29279;50.858;4.392;2023-05-19T00:54:53;15.40;;;6.90;;
43678;SDS011;29279;50.858;4.392;2023-05-19T00:57:19;17.55;;;6.70;;
43678;SDS011;29279;50.858;4.392;2023-05-19T00:59:46;16.52;;;6.75;;
43678;SDS011;29279;50.858;4.392;2023-05-19T01:02:12;12.73;;;6.57;;
43678;SDS011;29279;50.858;4.392;2023-05-19T01:04:39;21.23;;;7.40;;
43678;SDS011;29279;50.858;4.392;2023-05-19T01:07:05;18.55;;;5.97;;
43678;SDS011;29279;50.858;4.392;2023-05-19T01:09:32;16.15;;;6.85;;
43678;SDS011;29279;50.858;4.392;2023-05-19T01:11:58;17.83;;;7.93;;
43678;SDS011;29279;50.858;4.392;2023-05-19T01:14:25;22.92;;;8.27;;
43678;SDS011;29279;50.858;4.392;2023-05-19T01:30:54;20.70;;;7.57;;
43678;SDS011;29279;50.858;4.392;2023-05-19T01:33:25;21.30;;;7.78;;
43678;SDS011;29279;50.858;4.392;2023-05-19T01:35:54;20.05;;;7.18;;
43678;SDS011;29279;50.858;4.392;2023-05-19T01:38:20;21.45;;;8.07;;
43678;SDS011;29279;50.858;4.392;2023-05-19T01:40:47;12.48;;;7.63;;
43678;SDS011;29279;50.858;4.392;2023-05-19T01:43:19;21.13;;;7.97;;
43678;SDS011;29279;50.858;4.392;2023-05-19T01:45:46;21.75;;;8.57;;
43678;SDS011;29279;50.858;4.392;2023-05-19T01:48:12;18.30;;;8.25;;
43678;SDS011;29279;50.858;4.392;2023-05-19T01:50:39;23.98;;;8.30;;
43678;SDS011;29279;50.858;4.392;2023-05-19T01:53:05;24.67;;;8.93;;
43678;SDS011;29279;50.858;4.392;2023-05-19T01:55:31;23.88;;;9.32;;
43678;SDS011;29279;50.858;4.392;2023-05-19T02:06:41;21.33;;;9.23;;
43678;SDS011;29279;50.858;4.392;2023-05-19T02:12:02;24.50;;;9.50;;
43678;SDS011;29279;50.858;4.392;2023-05-19T02:17:40;25.35;;;9.90;;
43678;SDS011;29279;50.858;4.392;2023-05-19T02:20:11;21.77;;;9.82;;
43678;SDS011;29279;50.858;4.392;2023-05-19T02:22:37;22.05;;;9.60;;
43678;SDS011;29279;50.858;4.392;2023-05-19T02:25:03;16.88;;;9.27;;
43678;SDS011;29279;50.858;4.392;2023-05-19T02:27:29;24.70;;;10.30;;
43678;SDS011;29279;50.858;4.392;2023-05-19T02:29:55;18.52;;;9.55;;
43678;SDS011;29279;50.858;4.392;2023-05-19T02:32:21;18.58;;;10.05;;
43678;SDS011;29279;50.858;4.392;2023-05-19T02:34:48;21.90;;;9.68;;
43678;SDS011;29279;50.858;4.392;2023-05-19T02:37:14;21.02;;;10.80;;
43678;SDS011;29279;50.858;4.392;2023-05-19T02:39:41;22.10;;;10.75;;
43678;SDS011;29279;50.858;4.392;2023-05-19T02:42:07;24.65;;;10.18;;
43678;SDS011;29279;50.858;4.392;2023-05-19T02:44:32;17.35;;;9.70;;
43678;SDS011;29279;50.858;4.392;2023-05-19T02:46:58;19.27;;;10.18;;
43678;SDS011;29279;50.858;4.392;2023-05-19T02:49:24;26.13;;;10.85;;
43678;SDS011;29279;50.858;4.392;2023-05-19T02:51:50;20.83;;;10.10;;
43678;SDS011;29279;50.858;4.392;2023-05-19T02:54:16;21.98;;;11.13;;
43678;SDS011;29279;50.858;4.392;2023-05-19T02:56:41;25.77;;;10.90;;
43678;SDS011;29279;50.858;4.392;2023-05-19T02:59:07;24.23;;;10.40;;
43678;SDS011;29279;50.858;4.392;2023-05-19T03:01:33;31.80;;;11.43;;
43678;SDS011;29279;50.858;4.392;2023-05-19T03:03:58;24.95;;;10.63;;
43678;SDS011;29279;50.858;4.392;2023-05-19T03:06:24;23.55;;;11.20;;
43678;SDS011;29279;50.858;4.392;2023-05-19T03:08:50;25.48;;;10.50;;
43678;SDS011;29279;50.858;4.392;2023-05-19T03:11:16;20.80;;;9.77;;
43678;SDS011;29279;50.858;4.392;2023-05-19T03:13:41;16.55;;;9.98;;
43678;SDS011;29279;50.858;4.392;2023-05-19T03:16:07;19.42;;;10.52;;
43678;SDS011;29279;50.858;4.392;2023-05-19T03:18:33;20.42;;;10.35;;
43678;SDS011;29279;50.858;4.392;2023-05-19T03:20:59;26.30;;;11.38;;
43678;SDS011;29279;50.858;4.392;2023-05-19T03:23:24;26.48;;;10.43;;
43678;SDS011;29279;50.858;4.392;2023-05-19T03:25:50;14.98;;;9.63;;
43678;SDS011;29279;50.858;4.392;2023-05-19T03:28:18;22.88;;;10.85;;
43678;SDS011;29279;50.858;4.392;2023-05-19T03:30:44;23.65;;;10.40;;
43678;SDS011;29279;50.858;4.392;2023-05-19T03:33:10;27.98;;;11.02;;
43678;SDS011;29279;50.858;4.392;2023-05-19T03:35:35;19.75;;;11.48;;
43678;SDS011;29279;50.858;4.392;2023-05-19T03:38:04;19.80;;;10.70;;
43678;SDS011;29279;50.858;4.392;2023-05-19T03:40:30;24.90;;;11.35;;
43678;SDS011;29279;50.858;4.392;2023-05-19T03:42:56;20.65;;;11.82;;
43678;SDS011;29279;50.858;4.392;2023-05-19T03:45:22;18.95;;;10.70;;
43678;SDS011;29279;50.858;4.392;2023-05-19T03:47:47;21.30;;;10.93;;
43678;SDS011;29279;50.858;4.392;2023-05-19T03:50:13;20.30;;;11.25;;
43678;SDS011;29279;50.858;4.392;2023-05-19T03:52:38;20.92;;;10.32;;
43678;SDS011;29279;50.858;4.392;2023-05-19T03:55:09;16.85;;;9.93;;
43678;SDS011;29279;50.858;4.392;2023-05-19T03:57:35;29.40;;;11.48;;
43678;SDS011;29279;50.858;4.392;2023-05-19T04:00:02;20.55;;;11.23;;
43678;SDS011;29279;50.858;4.392;2023-05-19T04:02:29;21.38;;;10.93;;
43678;SDS011;29279;50.858;4.392;2023-05-19T04:04:55;20.75;;;11.57;;
43678;SDS011;29279;50.858;4.392;2023-05-19T04:07:21;26.15;;;12.48;;
43678;SDS011;29279;50.858;4.392;2023-05-19T04:09:48;21.58;;;12.43;;
43678;SDS011;29279;50.858;4.392;2023-05-19T04:12:13;23.55;;;11.65;;
43678;SDS011;29279;50.858;4.392;2023-05-19T04:14:39;20.13;;;11.50;;
43678;SDS011;29279;50.858;4.392;2023-05-19T04:17:05;28.70;;;11.95;;
43678;SDS011;29279;50.858;4.392;2023-05-19T04:19:31;25.88;;;11.48;;
43678;SDS011;29279;50.858;4.392;2023-05-19T04:21:57;27.52;;;12.60;;
43678;SDS011;29279;50.858;4.392;2023-05-19T04:24:22;28.42;;;12.93;;
43678;SDS011;29279;50.858;4.392;2023-05-19T04:26:48;25.58;;;12.18;;
43678;SDS011;29279;50.858;4.392;2023-05-19T04:29:14;23.83;;;11.77;;
43678;SDS011;29279;50.858;4.392;2023-05-19T04:31:42;23.35;;;12.30;;
43678;SDS011;29279;50.858;4.392;2023-05-19T04:34:08;25.90;;;12.68;;
43678;SDS011;29279;50.858;4.392;2023-05-19T04:36:34;29.17;;;12.48;;
43678;SDS011;29279;50.858;4.392;2023-05-19T04:39:00;25.58;;;12.60;;
43678;SDS011;29279;50.858;4.392;2023-05-19T04:41:28;24.95;;;12.63;;
43678;SDS011;29279;50.858;4.392;2023-05-19T04:43:54;25.50;;;12.73;;
43678;SDS011;29279;50.858;4.392;2023-05-19T04:46:21;28.15;;;13.43;;
43678;SDS011;29279;50.858;4.392;2023-05-19T04:48:48;26.45;;;12.75;;
43678;SDS011;29279;50.858;4.392;2023-05-19T04:51:14;23.67;;;12.35;;
43678;SDS011;29279;50.858;4.392;2023-05-19T04:53:41;27.20;;;12.15;;
43678;SDS011;29279;50.858;4.392;2023-05-19T04:56:08;18.83;;;12.07;;
43678;SDS011;29279;50.858;4.392;2023-05-19T04:58:34;25.00;;;12.63;;
43678;SDS011;29279;50.858;4.392;2023-05-19T05:01:00;31.13;;;14.10;;
43678;SDS011;29279;50.858;4.392;2023-05-19T05:03:25;25.90;;;13.30;;
43678;SDS011;29279;50.858;4.392;2023-05-19T05:05:51;25.70;;;13.65;;
43678;SDS011;29279;50.858;4.392;2023-05-19T05:08:17;24.67;;;13.20;;
43678;SDS011;29279;50.858;4.392;2023-05-19T05:10:50;23.05;;;13.73;;
43678;SDS011;29279;50.858;4.392;2023-05-19T05:13:21;23.98;;;12.90;;
43678;SDS011;29279;50.858;4.392;2023-05-19T05:15:48;25.13;;;14.10;;
43678;SDS011;29279;50.858;4.392;2023-05-19T05:18:16;25.65;;;13.05;;
43678;SDS011;29279;50.858;4.392;2023-05-19T05:20:45;23.38;;;13.57;;
43678;SDS011;29279;50.858;4.392;2023-05-19T05:23:14;25.30;;;13.18;;
43678;SDS011;29279;50.858;4.392;2023-05-19T05:25:41;25.08;;;12.85;;
43678;SDS011;29279;50.858;4.392;2023-05-19T05:28:07;32.03;;;13.73;;
43678;SDS011;29279;50.858;4.392;2023-05-19T05:30:34;24.75;;;12.95;;
43678;SDS011;29279;50.858;4.392;2023-05-19T05:33:00;24.15;;;13.52;;
43678;SDS011;29279;50.858;4.392;2023-05-19T05:35:30;23.42;;;12.95;;
43678;SDS011;29279;50.858;4.392;2023-05-19T05:37:56;26.70;;;12.60;;
43678;SDS011;29279;50.858;4.392;2023-05-19T05:40:24;26.95;;;12.38;;
43678;SDS011;29279;50.858;4.392;2023-05-19T05:42:49;24.23;;;12.98;;
43678;SDS011;29279;50.858;4.392;2023-05-19T05:45:15;27.17;;;12.93;;
43678;SDS011;29279;50.858;4.392;2023-05-19T05:47:41;26.30;;;12.52;;
43678;SDS011;29279;50.858;4.392;2023-05-19T05:50:07;28.27;;;13.55;;
43678;SDS011;29279;50.858;4.392;2023-05-19T05:52:34;22.70;;;12.18;;
43678;SDS011;29279;50.858;4.392;2023-05-19T05:55:01;26.42;;;12.75;;
43678;SDS011;29279;50.858;4.392;2023-05-19T05:57:28;24.42;;;12.32;;
43678;SDS011;29279;50.858;4.392;2023-05-19T05:59:54;26.33;;;12.88;;
43678;SDS011;29279;50.858;4.392;2023-05-19T06:02:21;18.88;;;12.15;;
43678;SDS011;29279;50.858;4.392;2023-05-19T06:04:47;22.00;;;12.20;;
43678;SDS011;29279;50.858;4.392;2023-05-19T06:07:13;31.92;;;12.25;;
43678;SDS011;29279;50.858;4.392;2023-05-19T06:09:38;18.63;;;11.10;;
43678;SDS011;29279;50.858;4.392;2023-05-19T06:12:04;26.20;;;12.60;;
43678;SDS011;29279;50.858;4.392;2023-05-19T06:14:30;28.00;;;11.48;;
43678;SDS011;29279;50.858;4.392;2023-05-19T06:16:56;27.75;;;11.52;;
43678;SDS011;29279;50.858;4.392;2023-05-19T06:19:22;32.72;;;13.20;;
43678;SDS011;29279;50.858;4.392;2023-05-19T06:21:49;23.25;;;11.90;;
43678;SDS011;29279;50.858;4.392;2023-05-19T06:24:15;31.70;;;11.43;;
43678;SDS011;29279;50.858;4.392;2023-05-19T06:26:41;28.98;;;12.30;;
43678;SDS011;29279;50.858;4.392;2023-05-19T06:29:06;25.50;;;12.80;;
43678;SDS011;29279;50.858;4.392;2023-05-19T06:31:32;26.08;;;11.18;;
43678;SDS011;29279;50.858;4.392;2023-05-19T06:33:58;21.20;;;11.93;;
43678;SDS011;29279;50.858;4.392;2023-05-19T06:36:24;18.52;;;10.70;;
43678;SDS011;29279;50.858;4.392;2023-05-19T06:38:49;24.63;;;12.77;;
43678;SDS011;29279;50.858;4.392;2023-05-19T06:41:15;24.95;;;12.25;;
43678;SDS011;29279;50.858;4.392;2023-05-19T06:43:41;25.05;;;12.27;;
43678;SDS011;29279;50.858;4.392;2023-05-19T06:46:07;25.15;;;11.30;;
43678;SDS011;29279;50.858;4.392;2023-05-19T06:48:33;23.45;;;11.32;;
43678;SDS011;29279;50.858;4.392;2023-05-19T06:50:59;20.40;;;11.90;;
43678;SDS011;29279;50.858;4.392;2023-05-19T06:53:24;22.80;;;10.77;;
43678;SDS011;29279;50.858;4.392;2023-05-19T06:55:50;24.58;;;11.45;;
43678;SDS011;29279;50.858;4.392;2023-05-19T06:58:16;30.08;;;11.82;;
43678;SDS011;29279;50.858;4.392;2023-05-19T07:00:42;31.58;;;11.85;;
43678;SDS011;29279;50.858;4.392;2023-05-19T07:03:08;23.13;;;10.98;;
43678;SDS011;29279;50.858;4.392;2023-05-19T07:05:33;19.25;;;11.38;;
43678;SDS011;29279;50.858;4.392;2023-05-19T07:07:59;25.20;;;12.05;;
43678;SDS011;29279;50.858;4.392;2023-05-19T07:10:25;21.23;;;11.43;;
43678;SDS011;29279;50.858;4.392;2023-05-19T07:12:52;19.38;;;10.48;;
43678;SDS011;29279;50.858;4.392;2023-05-19T07:15:17;22.70;;;10.38;;
43678;SDS011;29279;50.858;4.392;2023-05-19T07:17:43;20.27;;;10.20;;
43678;SDS011;29279;50.858;4.392;2023-05-19T07:20:09;24.55;;;10.77;;
43678;SDS011;29279;50.858;4.392;2023-05-19T07:22:35;22.70;;;10.13;;
43678;SDS011;29279;50.858;4.392;2023-05-19T07:25:03;21.17;;;9.82;;
43678;SDS011;29279;50.858;4.392;2023-05-19T07:27:30;22.55;;;9.52;;
43678;SDS011;29279;50.858;4.392;2023-05-19T07:29:55;21.25;;;9.77;;
43678;SDS011;29279;50.858;4.392;2023-05-19T07:32:21;18.45;;;10.80;;
43678;SDS011;29279;50.858;4.392;2023-05-19T07:34:47;22.45;;;10.27;;
43678;SDS011;29279;50.858;4.392;2023-05-19T07:37:12;19.50;;;10.13;;
43678;SDS011;29279;50.858;4.392;2023-05-19T07:39:38;24.02;;;10.77;;
43678;SDS011;29279;50.858;4.392;2023-05-19T07:42:04;21.05;;;9.73;;
43678;SDS011;29279;50.858;4.392;2023-05-19T07:44:29;20.52;;;9.43;;
43678;SDS011;29279;50.858;4.392;2023-05-19T07:46:55;17.80;;;9.82;;
43678;SDS011;29279;50.858;4.392;2023-05-19T07:49:21;23.95;;;11.07;;
43678;SDS011;29279;50.858;4.392;2023-05-19T07:51:47;19.27;;;10.15;;
43678;SDS011;29279;50.858;4.392;2023-05-19T07:54:13;26.33;;;9.38;;
43678;SDS011;29279;50.858;4.392;2023-05-19T07:56:38;16.63;;;8.35;;
43678;SDS011;29279;50.858;4.392;2023-05-19T07:59:05;16.40;;;8.25;;
43678;SDS011;29279;50.858;4.392;2023-05-19T08:01:32;17.25;;;9.05;;
43678;SDS011;29279;50.858;4.392;2023-05-19T08:03:57;24.92;;;7.80;;
43678;SDS011;29279;50.858;4.392;2023-05-19T08:06:23;14.52;;;7.80;;
43678;SDS011;29279;50.858;4.392;2023-05-19T08:08:49;17.20;;;7.60;;
43678;SDS011;29279;50.858;4.392;2023-05-19T08:11:16;19.88;;;8.18;;
43678;SDS011;29279;50.858;4.392;2023-05-19T08:13:41;21.60;;;8.93;;
43678;SDS011;29279;50.858;4.392;2023-05-19T08:16:07;23.27;;;8.38;;
43678;SDS011;29279;50.858;4.392;2023-05-19T08:18:33;20.20;;;9.27;;
43678;SDS011;29279;50.858;4.392;2023-05-19T08:20:58;20.95;;;8.40;;
43678;SDS011;29279;50.858;4.392;2023-05-19T08:23:25;20.50;;;8.02;;
43678;SDS011;29279;50.858;4.392;2023-05-19T08:25:51;18.30;;;8.63;;
43678;SDS011;29279;50.858;4.392;2023-05-19T08:28:16;20.25;;;8.30;;
43678;SDS011;29279;50.858;4.392;2023-05-19T08:30:42;17.95;;;7.50;;
43678;SDS011;29279;50.858;4.392;2023-05-19T08:33:08;21.83;;;8.80;;
43678;SDS011;29279;50.858;4.392;2023-05-19T08:35:33;16.70;;;7.70;;
43678;SDS011;29279;50.858;4.392;2023-05-19T08:37:59;18.23;;;7.28;;
43678;SDS011;29279;50.858;4.392;2023-05-19T08:40:25;16.15;;;6.13;;
43678;SDS011;29279;50.858;4.392;2023-05-19T08:42:55;16.70;;;6.63;;
43678;SDS011;29279;50.858;4.392;2023-05-19T08:45:21;17.08;;;6.68;;
43678;SDS011;29279;50.858;4.392;2023-05-19T08:47:46;16.35;;;5.97;;
43678;SDS011;29279;50.858;4.392;2023-05-19T08:50:22;12.80;;;6.30;;
43678;SDS011;29279;50.858;4.392;2023-05-19T08:53:00;22.98;;;5.80;;
43678;SDS011;29279;50.858;4.392;2023-05-19T08:58:05;16.00;;;5.85;;
43678;SDS011;29279;50.858;4.392;2023-05-19T09:00:31;14.35;;;5.45;;
43678;SDS011;29279;50.858;4.392;2023-05-19T09:02:58;14.00;;;5.15;;
43678;SDS011;29279;50.858;4.392;2023-05-19T09:05:25;12.93;;;5.28;;
43678;SDS011;29279;50.858;4.392;2023-05-19T09:07:50;16.90;;;5.20;;
43678;SDS011;29279;50.858;4.392;2023-05-19T09:10:16;10.13;;;4.80;;
43678;SDS011;29279;50.858;4.392;2023-05-19T09:12:45;14.02;;;4.75;;
43678;SDS011;29279;50.858;4.392;2023-05-19T09:15:12;13.73;;;4.40;;
43678;SDS011;29279;50.858;4.392;2023-05-19T09:17:45;14.02;;;4.90;;
43678;SDS011;29279;50.858;4.392;2023-05-19T09:20:12;17.33;;;4.45;;
43678;SDS011;29279;50.858;4.392;2023-05-19T09:22:42;10.35;;;4.22;;
43678;SDS011;29279;50.858;4.392;2023-05-19T09:25:17;14.07;;;5.00;;
43678;SDS011;29279;50.858;4.392;2023-05-19T09:27:47;16.73;;;4.35;;
43678;SDS011;29279;50.858;4.392;2023-05-19T09:30:14;12.45;;;3.95;;
43678;SDS011;29279;50.858;4.392;2023-05-19T09:32:42;16.33;;;3.92;;
43678;SDS011;29279;50.858;4.392;2023-05-19T09:35:08;12.63;;;4.03;;
43678;SDS011;29279;50.858;4.392;2023-05-19T09:37:37;9.55;;;3.67;;
43678;SDS011;29279;50.858;4.392;2023-05-19T09:40:05;12.80;;;3.85;;
43678;SDS011;29279;50.858;4.392;2023-05-19T09:42:33;16.05;;;3.85;;
43678;SDS011;29279;50.858;4.392;2023-05-19T09:45:02;11.52;;;3.72;;
43678;SDS011;29279;50.858;4.392;2023-05-19T09:47:32;13.80;;;3.53;;
43678;SDS011;29279;50.858;4.392;2023-05-19T09:50:05;17.15;;;2.88;;
43678;SDS011;29279;50.858;4.392;2023-05-19T09:52:39;18.00;;;3.38;;
43678;SDS011;29279;50.858;4.392;2023-05-19T09:55:08;12.82;;;3.83;;
43678;SDS011;29279;50.858;4.392;2023-05-19T09:57:35;11.93;;;3.25;;
43678;SDS011;29279;50.858;4.392;2023-05-19T10:00:08;11.15;;;3.28;;
43678;SDS011;29279;50.858;4.392;2023-05-19T10:02:39;9.77;;;2.80;;
43678;SDS011;29279;50.858;4.392;2023-05-19T10:05:09;9.73;;;2.92;;
43678;SDS011;29279;50.858;4.392;2023-05-19T10:07:37;13.63;;;3.30;;
43678;SDS011;29279;50.858;4.392;2023-05-19T10:10:06;7.43;;;2.72;;
43678;SDS011;29279;50.858;4.392;2023-05-19T10:12:35;8.63;;;2.78;;
43678;SDS011;29279;50.858;4.392;2023-05-19T10:15:03;10.85;;;3.45;;
43678;SDS011;29279;50.858;4.392;2023-05-19T10:17:31;13.48;;;3.50;;
43678;SDS011;29279;50.858;4.392;2023-05-19T10:19:59;13.63;;;3.33;;
43678;SDS011;29279;50.858;4.392;2023-05-19T10:22:25;11.48;;;3.05;;
43678;SDS011;29279;50.858;4.392;2023-05-19T10:24:52;9.45;;;2.88;;
43678;SDS011;29279;50.858;4.392;2023-05-19T10:27:19;14.85;;;2.85;;
43678;SDS011;29279;50.858;4.392;2023-05-19T10:29:48;9.77;;;3.20;;
43678;SDS011;29279;50.858;4.392;2023-05-19T10:32:16;12.98;;;3.30;;
43678;SDS011;29279;50.858;4.392;2023-05-19T10:40:11;14.45;;;3.13;;
43678;SDS011;29279;50.858;4.392;2023-05-19T10:45:29;6.05;;;2.65;;
43678;SDS011;29279;50.858;4.392;2023-05-19T10:48:08;12.52;;;2.95;;
43678;SDS011;29279;50.858;4.392;2023-05-19T10:50:35;9.55;;;2.88;;
43678;SDS011;29279;50.858;4.392;2023-05-19T10:53:01;10.27;;;2.90;;
43678;SDS011;29279;50.858;4.392;2023-05-19T10:55:43;10.25;;;2.88;;
43678;SDS011;29279;50.858;4.392;2023-05-19T10:58:11;23.85;;;2.75;;
43678;SDS011;29279;50.858;4.392;2023-05-19T11:00:37;10.57;;;3.13;;
43678;SDS011;29279;50.858;4.392;2023-05-19T11:03:14;9.38;;;2.65;;
43678;SDS011;29279;50.858;4.392;2023-05-19T11:05:41;10.13;;;2.55;;
43678;SDS011;29279;50.858;4.392;2023-05-19T11:08:10;15.13;;;3.30;;
43678;SDS011;29279;50.858;4.392;2023-05-19T11:10:36;20.63;;;3.92;;
43678;SDS011;29279;50.858;4.392;2023-05-19T11:13:03;13.98;;;2.72;;
43678;SDS011;29279;50.858;4.392;2023-05-19T11:15:32;9.75;;;2.78;;
43678;SDS011;29279;50.858;4.392;2023-05-19T11:18:00;7.22;;;3.17;;
43678;SDS011;29279;50.858;4.392;2023-05-19T11:20:27;10.25;;;3.03;;
43678;SDS011;29279;50.858;4.392;2023-05-19T11:23:14;7.63;;;2.92;;
43678;SDS011;29279;50.858;4.392;2023-05-19T11:25:47;8.52;;;3.08;;
43678;SDS011;29279;50.858;4.392;2023-05-19T11:28:15;9.93;;;2.72;;
43678;SDS011;29279;50.858;4.392;2023-05-19T11:30:47;12.23;;;3.20;;
43678;SDS011;29279;50.858;4.392;2023-05-19T11:33:15;9.32;;;2.53;;
43678;SDS011;29279;50.858;4.392;2023-05-19T11:35:45;14.60;;;2.72;;
43678;SDS011;29279;50.858;4.392;2023-05-19T11:38:11;10.18;;;2.80;;
43678;SDS011;29279;50.858;4.392;2023-05-19T11:40:39;15.70;;;2.40;;
43678;SDS011;29279;50.858;4.392;2023-05-19T11:43:06;11.00;;;2.72;;
43678;SDS011;29279;50.858;4.392;2023-05-19T11:45:31;10.82;;;2.80;;
43678;SDS011;29279;50.858;4.392;2023-05-19T11:47:58;8.18;;;2.80;;
43678;SDS011;29279;50.858;4.392;2023-05-19T11:50:24;16.90;;;3.47;;
43678;SDS011;29279;50.858;4.392;2023-05-19T11:52:50;9.60;;;3.13;;
43678;SDS011;29279;50.858;4.392;2023-05-19T11:55:17;9.63;;;2.55;;
43678;SDS011;29279;50.858;4.392;2023-05-19T11:58:01;8.25;;;2.47;;
43678;SDS011;29279;50.858;4.392;2023-05-19T12:00:28;11.27;;;3.42;;
43678;SDS011;29279;50.858;4.392;2023-05-19T12:03:01;6.63;;;2.38;;
43678;SDS011;29279;50.858;4.392;2023-05-19T12:05:26;8.57;;;2.70;;
43678;SDS011;29279;50.858;4.392;2023-05-19T12:07:53;14.27;;;2.28;;
43678;SDS011;29279;50.858;4.392;2023-05-19T12:10:22;15.77;;;3.25;;
43678;SDS011;29279;50.858;4.392;2023-05-19T12:12:52;9.88;;;2.90;;
43678;SDS011;29279;50.858;4.392;2023-05-19T12:15:19;11.23;;;2.33;;
43678;SDS011;29279;50.858;4.392;2023-05-19T12:17:55;11.50;;;3.22;;
43678;SDS011;29279;50.858;4.392;2023-05-19T12:20:23;6.72;;;2.30;;
43678;SDS011;29279;50.858;4.392;2023-05-19T12:22:49;10.63;;;2.55;;
43678;SDS011;29279;50.858;4.392;2023-05-19T12:25:15;9.52;;;2.38;;
43678;SDS011;29279;50.858;4.392;2023-05-19T12:27:42;10.52;;;2.72;;
43678;SDS011;29279;50.858;4.392;2023-05-19T12:30:08;12.35;;;2.97;;
43678;SDS011;29279;50.858;4.392;2023-05-19T12:32:35;10.32;;;2.33;;
43678;SDS011;29279;50.858;4.392;2023-05-19T12:35:04;12.40;;;2.53;;
43678;SDS011;29279;50.858;4.392;2023-05-19T12:37:30;6.32;;;2.42;;
43678;SDS011;29279;50.858;4.392;2023-05-19T12:39:57;6.85;;;2.03;;
43678;SDS011;29279;50.858;4.392;2023-05-19T12:42:25;11.70;;;2.50;;
43678;SDS011;29279;50.858;4.392;2023-05-19T12:44:55;9.50;;;2.15;;
43678;SDS011;29279;50.858;4.392;2023-05-19T12:47:28;9.38;;;2.50;;
43678;SDS011;29279;50.858;4.392;2023-05-19T12:52:25;6.75;;;2.20;;
43678;SDS011;29279;50.858;4.392;2023-05-19T12:55:02;7.43;;;2.30;;
43678;SDS011;29279;50.858;4.392;2023-05-19T12:57:35;11.57;;;2.58;;
43678;SDS011;29279;50.858;4.392;2023-05-19T13:00:05;10.18;;;2.30;;
43678;SDS011;29279;50.858;4.392;2023-05-19T13:02:35;13.80;;;2.83;;
43678;SDS011;29279;50.858;4.392;2023-05-19T13:05:19;10.27;;;2.25;;
43678;SDS011;29279;50.858;4.392;2023-05-19T13:07:58;11.82;;;2.00;;
43678;SDS011;29279;50.858;4.392;2023-05-19T13:10:32;8.52;;;2.58;;
43678;SDS011;29279;50.858;4.392;2023-05-19T13:12:58;11.48;;;2.53;;
43678;SDS011;29279;50.858;4.392;2023-05-19T13:15:25;8.07;;;2.50;;
43678;SDS011;29279;50.858;4.392;2023-05-19T13:17:52;10.20;;;2.35;;
43678;SDS011;29279;50.858;4.392;2023-05-19T13:20:19;8.73;;;2.78;;
43678;SDS011;29279;50.858;4.392;2023-05-19T13:22:46;11.02;;;3.05;;
43678;SDS011;29279;50.858;4.392;2023-05-19T13:25:12;7.63;;;2.05;;
43678;SDS011;29279;50.858;4.392;2023-05-19T13:27:38;9.55;;;2.38;;
43678;SDS011;29279;50.858;4.392;2023-05-19T13:30:05;9.85;;;2.70;;
43678;SDS011;29279;50.858;4.392;2023-05-19T13:32:39;10.75;;;2.53;;
43678;SDS011;29279;50.858;4.392;2023-05-19T13:35:04;7.03;;;2.63;;
43678;SDS011;29279;50.858;4.392;2023-05-19T13:37:30;11.23;;;2.75;;
43678;SDS011;29279;50.858;4.392;2023-05-19T13:39:56;7.13;;;2.50;;
43678;SDS011;29279;50.858;4.392;2023-05-19T13:42:22;6.32;;;1.95;;
43678;SDS011;29279;50.858;4.392;2023-05-19T13:44:48;8.15;;;2.72;;
43678;SDS011;29279;50.858;4.392;2023-05-19T13:47:14;7.47;;;2.03;;
43678;SDS011;29279;50.858;4.392;2023-05-19T13:49:40;10.13;;;2.08;;
43678;SDS011;29279;50.858;4.392;2023-05-19T13:52:06;8.43;;;2.28;;
43678;SDS011;29279;50.858;4.392;2023-05-19T13:54:32;10.82;;;2.42;;
43678;SDS011;29279;50.858;4.392;2023-05-19T13:56:58;9.95;;;2.30;;
43678;SDS011;29279;50.858;4.392;2023-05-19T13:59:24;9.43;;;2.15;;
43678;SDS011;29279;50.858;4.392;2023-05-19T14:01:50;6.82;;;1.90;;
43678;SDS011;29279;50.858;4.392;2023-05-19T14:04:16;13.25;;;2.65;;
43678;SDS011;29279;50.858;4.392;2023-05-19T14:06:43;11.57;;;2.75;;
43678;SDS011;29279;50.858;4.392;2023-05-19T14:09:09;8.60;;;2.60;;
43678;SDS011;29279;50.858;4.392;2023-05-19T14:11:35;8.00;;;2.10;;
43678;SDS011;29279;50.858;4.392;2023-05-19T14:14:00;9.23;;;2.97;;
43678;SDS011;29279;50.858;4.392;2023-05-19T14:16:29;11.73;;;2.40;;
43678;SDS011;29279;50.858;4.392;2023-05-19T14:18:54;11.20;;;2.58;;
43678;SDS011;29279;50.858;4.392;2023-05-19T14:21:20;9.95;;;2.47;;
43678;SDS011;29279;50.858;4.392;2023-05-19T14:23:46;10.07;;;3.20;;
43678;SDS011;29279;50.858;4.392;2023-05-19T14:26:12;8.00;;;2.50;;
43678;SDS011;29279;50.858;4.392;2023-05-19T14:28:37;7.57;;;2.72;;
43678;SDS011;29279;50.858;4.392;2023-05-19T14:31:03;12.98;;;2.42;;
43678;SDS011;29279;50.858;4.392;2023-05-19T14:33:30;11.32;;;2.72;;
43678;SDS011;29279;50.858;4.392;2023-05-19T14:35:55;9.30;;;2.65;;
43678;SDS011;29279;50.858;4.392;2023-05-19T14:38:24;10.43;;;2.70;;
43678;SDS011;29279;50.858;4.392;2023-05-19T14:40:50;11.70;;;3.20;;
43678;SDS011;29279;50.858;4.392;2023-05-19T14:43:16;10.00;;;2.70;;
43678;SDS011;29279;50.858;4.392;2023-05-19T14:45:41;8.32;;;2.83;;
43678;SDS011;29279;50.858;4.392;2023-05-19T14:48:07;8.90;;;2.28;;
43678;SDS011;29279;50.858;4.392;2023-05-19T14:50:35;9.18;;;2.63;;
43678;SDS011;29279;50.858;4.392;2023-05-19T14:53:01;8.75;;;2.65;;
43678;SDS011;29279;50.858;4.392;2023-05-19T14:55:27;10.68;;;2.67;;
43678;SDS011;29279;50.858;4.392;2023-05-19T14:57:53;12.93;;;3.00;;
43678;SDS011;29279;50.858;4.392;2023-05-19T15:00:18;9.48;;;2.20;;
43678;SDS011;29279;50.858;4.392;2023-05-19T15:02:44;12.18;;;3.08;;
43678;SDS011;29279;50.858;4.392;2023-05-19T15:05:10;8.75;;;2.50;;
43678;SDS011;29279;50.858;4.392;2023-05-19T15:07:36;14.73;;;2.75;;
43678;SDS011;29279;50.858;4.392;2023-05-19T15:10:02;11.05;;;3.13;;
43678;SDS011;29279;50.858;4.392;2023-05-19T15:12:28;6.80;;;2.50;;
43678;SDS011;29279;50.858;4.392;2023-05-19T15:14:54;10.15;;;3.00;;